Aviation Digital Data Service (ADDS)

Output produced by METARs form (1202 UTC 25 June 2019)
found at http://www.aviationweather.gov/metar/data/
 
UTDD 251130Z 00000MPS 9999 FEW066 33/08 Q1012 R09/D NOSIG RMK QFE691/0921
TAF UTDD 250900Z 2510/2522 VRB02MPS 6000 SCT060CB SCT100 
     PROB30 
     TEMPO 2510/2516 TS
       
UTDL 251130Z 10001MPS 9999 FEW066CB 37/02 Q1010 R08/CLRD70 NOSIG RMK QFE718/0958
TAF UTDL 250900Z 2510/2519 24005MPS 9999 FEW060CB SCT080 
     TEMPO 2510/2512 VRB02MPS FEW050